Time;durP1;ratioP1;P1;durP2;ratioP2;P2;SDS_P1;SDS_P2;PMS_P1;PMS_P2;Temp;Humidity;BMP_temperature;BMP_pressure;BME280_temperature;BME280_humidity;BME280_pressure;Samples;Min_cycle;Max_cycle;Signal;HPM_P1;HPM_P2
2022/07/26 00:01:17;;;;;;;8.13;7.32;;;;;;;27.70;39.27;100599.06;5086359;28;20851;-72
2022/07/26 00:03:43;;;;;;;7.85;7.15;;;;;;;27.68;39.37;100601.25;5067835;28;20877;-72
2022/07/26 00:06:09;;;;;;;8.90;6.80;;;;;;;27.61;39.66;100604.31;5066405;28;20399;-72
2022/07/26 00:08:34;;;;;;;7.77;6.87;;;;;;;27.55;39.44;100605.47;5066448;28;20447;-72
2022/07/26 00:11:00;;;;;;;8.85;7.47;;;;;;;27.51;39.57;100604.41;5066187;28;20384;-72
2022/07/26 00:15:52;;;;;;;8.43;7.60;;;;;;;27.52;39.55;100600.59;5053301;28;20410;-72
2022/07/26 00:18:18;;;;;;;8.07;7.10;;;;;;;27.52;39.88;100603.31;5026716;28;20407;-71
2022/07/26 00:20:44;;;;;;;7.70;7.00;;;;;;;27.50;39.76;100599.25;5026438;28;20391;-72
2022/07/26 00:24:12;;;;;;;8.07;7.30;;;;;;;27.46;39.94;100605.28;5101062;27;20460;-73
2022/07/26 00:26:38;;;;;;;8.17;6.90;;;;;;;27.40;40.19;100603.69;5076024;28;20395;-72
2022/07/26 00:29:04;;;;;;;7.57;6.87;;;;;;;27.32;40.61;100598.06;5066334;28;20437;-73
2022/07/26 00:31:30;;;;;;;7.80;7.10;;;;;;;27.23;40.69;100601.34;5075357;28;20393;-72
2022/07/26 00:33:56;;;;;;;8.43;7.35;;;;;;;27.21;40.59;100600.81;5072721;28;20380;-72
2022/07/26 00:36:22;;;;;;;7.93;7.13;;;;;;;27.13;40.74;100600.63;5079956;28;20387;-72
2022/07/26 00:38:47;;;;;;;8.47;7.47;;;;;;;27.10;41.02;100602.00;5079228;28;20435;-72
2022/07/26 00:41:12;;;;;;;7.40;6.70;;;;;;;26.98;41.11;100599.63;5081178;28;20421;-71
2022/07/26 00:43:52;;;;;;;8.50;7.60;;;;;;;26.93;41.27;100599.66;5073561;28;20927;-72
2022/07/26 00:46:18;;;;;;;8.15;7.30;;;;;;;26.97;41.56;100599.91;5071013;28;20376;-72
2022/07/26 00:49:20;;;;;;;7.80;7.03;;;;;;;26.94;41.59;100604.03;5094020;27;20467;-73
2022/07/26 00:51:45;;;;;;;7.80;7.10;;;;;;;26.94;41.64;100604.03;5046714;28;20397;-73
2022/07/26 00:54:11;;;;;;;7.80;7.07;;;;;;;26.94;41.33;100611.34;5046492;28;20393;-72
2022/07/26 00:56:37;;;;;;;8.43;7.27;;;;;;;26.84;41.03;100612.25;5043934;28;20528;-73
2022/07/26 00:59:03;;;;;;;9.45;7.22;;;;;;;26.74;41.49;100613.13;5046498;28;20410;-72
2022/07/26 01:01:28;;;;;;;7.90;7.15;;;;;;;26.64;41.61;100608.53;5046407;28;20439;-73
2022/07/26 01:03:54;;;;;;;8.35;7.32;;;;;;;26.69;41.37;100613.94;5046103;28;20476;-74
2022/07/26 01:08:25;;;;;;;8.25;7.55;;;;;;;26.66;41.55;100600.09;5084019;27;20408;-73
2022/07/26 01:10:52;;;;;;;8.67;7.20;;;;;;;26.63;41.72;100598.78;5066852;28;20408;-72
2022/07/26 01:13:21;;;;;;;7.50;6.80;;;;;;;26.60;41.93;100602.00;5066288;28;20454;-73
2022/07/26 01:15:46;;;;;;;8.00;7.20;;;;;;;26.56;41.82;100598.22;5066538;28;20424;-73
2022/07/26 01:18:14;;;;;;;8.35;7.50;;;;;;;26.50;42.06;100607.50;5066391;28;20372;-71
2022/07/26 01:20:40;;;;;;;8.32;7.53;;;;;;;26.48;41.95;100601.53;5066826;28;20480;-73
2022/07/26 01:23:07;;;;;;;8.50;7.70;;;;;;;26.48;41.92;100604.25;5066618;28;20383;-72
2022/07/26 01:25:35;;;;;;;7.95;7.25;;;;;;;26.41;41.99;100604.53;5066245;28;20468;-73
2022/07/26 01:28:01;;;;;;;8.52;7.72;;;;;;;26.42;42.00;100606.19;5066135;28;20415;-73
2022/07/26 01:30:26;;;;;;;8.07;7.32;;;;;;;26.38;41.99;100604.28;5066146;28;20384;-73
2022/07/26 01:32:52;;;;;;;8.10;7.30;;;;;;;26.37;42.20;100602.66;5066363;28;20866;-72
2022/07/26 01:35:18;;;;;;;8.00;7.30;;;;;;;26.35;42.03;100602.16;5065995;28;20390;-71
2022/07/26 01:37:43;;;;;;;9.60;7.80;;;;;;;26.36;42.01;100601.84;5066070;28;20464;-73
2022/07/26 01:40:17;;;;;;;8.43;7.53;;;;;;;26.33;41.95;100600.50;5078972;27;20810;-73
2022/07/26 01:42:44;;;;;;;8.20;7.40;;;;;;;26.29;42.09;100596.72;5066325;28;20396;-73
2022/07/26 01:47:07;;;;;;;8.57;7.78;;;;;;;26.25;42.06;100597.53;5092522;27;20410;-73
2022/07/26 01:49:33;;;;;;;10.63;7.73;;;;;;;26.24;42.18;100596.75;5072508;28;20394;-73
2022/07/26 01:51:59;;;;;;;8.47;7.60;;;;;;;26.24;42.13;100599.47;5074837;28;20392;-73
2022/07/26 01:56:18;;;;;;;8.27;7.40;;;;;;;26.22;42.10;100598.94;5055085;28;20415;-73
2022/07/26 01:59:26;;;;;;;9.50;7.55;;;;;;;26.23;42.03;100594.28;5102861;27;20397;-72
2022/07/26 02:01:52;;;;;;;8.50;7.60;;;;;;;26.23;41.98;100602.44;5077863;28;20403;-73
2022/07/26 02:07:01;;;;;;;8.93;8.03;;;;;;;26.12;42.08;100613.34;5066842;28;20395;-73
2022/07/26 02:09:26;;;;;;;8.80;7.90;;;;;;;26.09;42.18;100608.47;5066946;28;20384;-72
2022/07/26 02:11:52;;;;;;;9.05;7.90;;;;;;;26.11;41.97;100613.66;5080185;28;20759;-73
2022/07/26 02:14:17;;;;;;;8.60;7.70;;;;;;;26.10;42.08;100615.53;5079002;28;20378;-73
2022/07/26 02:16:43;;;;;;;8.63;7.67;;;;;;;26.10;42.04;100610.09;5072295;28;20428;-73
2022/07/26 02:19:08;;;;;;;10.60;7.60;;;;;;;26.10;41.98;100609.28;5076309;28;20380;-72
2022/07/26 02:21:34;;;;;;;8.53;7.60;;;;;;;26.10;41.94;100609.28;5068125;28;20384;-72
2022/07/26 02:24:00;;;;;;;8.95;8.00;;;;;;;26.10;41.92;100610.09;5077927;28;20384;-72
2022/07/26 02:27:07;;;;;;;9.73;7.60;;;;;;;26.08;42.22;100608.75;5085180;27;20395;-73
2022/07/26 02:29:32;;;;;;;8.63;7.70;;;;;;;26.03;42.36;100606.06;5066550;28;20431;-72
2022/07/26 02:31:58;;;;;;;8.68;7.65;;;;;;;26.01;42.42;100613.66;5066654;28;20414;-73
2022/07/26 02:34:24;;;;;;;8.73;7.82;;;;;;;25.99;42.31;100607.69;5056881;28;20553;-73
2022/07/26 02:36:50;;;;;;;9.30;7.43;;;;;;;25.92;42.54;100606.03;5062308;28;20548;-73
2022/07/26 02:39:16;;;;;;;8.53;7.70;;;;;;;25.93;42.50;100610.41;5058524;28;20388;-73
2022/07/26 02:41:41;;;;;;;8.68;7.40;;;;;;;25.96;42.55;100613.66;5060098;28;20384;-72
2022/07/26 02:44:08;;;;;;;9.00;7.73;;;;;;;25.93;42.40;100610.41;5066681;28;20948;-73
2022/07/26 02:46:34;;;;;;;9.40;7.80;;;;;;;25.89;42.61;100613.91;5066392;28;20416;-72
2022/07/26 02:50:37;;;;;;;8.90;7.90;;;;;;;25.89;42.63;100619.34;4535593;27;15803407;-73
2022/07/26 02:53:03;;;;;;;9.35;8.07;;;;;;;25.88;42.77;100612.31;5159488;27;20404;-74
2022/07/26 02:55:28;;;;;;;8.85;8.02;;;;;;;25.87;42.90;100616.09;5147870;27;20837;-73
2022/07/26 02:57:54;;;;;;;9.93;8.10;;;;;;;25.85;42.77;100621.81;5156072;27;20433;-73
2022/07/26 03:00:23;;;;;;;9.18;7.97;;;;;;;25.85;42.69;100615.56;5155238;27;20389;-74
2022/07/26 03:02:50;;;;;;;8.30;7.50;;;;;;;25.79;42.76;100619.41;5148094;27;21008;-73
2022/07/26 03:05:15;;;;;;;10.60;7.60;;;;;;;25.76;42.66;100615.31;5152099;27;20908;-73
2022/07/26 03:07:41;;;;;;;8.98;7.90;;;;;;;25.71;42.61;100615.31;5162495;27;20382;-74
2022/07/26 03:10:07;;;;;;;12.40;7.93;;;;;;;25.70;42.68;100611.78;5165489;27;20472;-74
2022/07/26 03:12:33;;;;;;;10.85;7.75;;;;;;;25.67;42.71;100612.31;5167581;27;20448;-73
2022/07/26 03:14:58;;;;;;;9.88;7.70;;;;;;;25.64;42.73;100617.50;5147355;27;20963;-72
2022/07/26 03:17:24;;;;;;;9.93;8.32;;;;;;;25.66;42.81;100610.72;5145368;27;20457;-74
2022/07/26 03:19:49;;;;;;;9.47;7.70;;;;;;;25.62;42.86;100612.34;5148812;27;20377;-74
2022/07/26 03:22:15;;;;;;;8.10;7.30;;;;;;;25.61;42.72;100610.72;5163005;27;20730;-74
2022/07/26 03:24:40;;;;;;;9.30;8.20;;;;;;;25.67;42.75;100619.66;5158819;27;20475;-73
2022/07/26 03:27:06;;;;;;;8.80;7.93;;;;;;;25.67;42.65;100623.19;5140922;27;20375;-73
2022/07/26 03:29:31;;;;;;;13.33;8.10;;;;;;;25.70;42.62;100627.28;5164848;27;20775;-72
2022/07/26 03:31:57;;;;;;;10.70;7.83;;;;;;;25.73;42.63;100619.41;5165997;27;20387;-72
2022/07/26 03:34:22;;;;;;;9.18;7.90;;;;;;;25.80;42.38;100629.94;5166924;27;20372;-72
2022/07/26 03:36:48;;;;;;;8.57;7.70;;;;;;;25.84;42.20;100630.22;5147837;27;20430;-73
2022/07/26 03:39:14;;;;;;;9.23;7.80;;;;;;;25.87;41.97;100626.97;5147081;27;20380;-73
2022/07/26 03:41:39;;;;;;;8.33;7.53;;;;;;;25.98;41.78;100622.34;5155084;27;20870;-74
2022/07/26 03:44:06;;;;;;;8.32;7.53;;;;;;;26.04;41.65;100627.50;5157653;27;20404;-74
2022/07/26 03:46:31;;;;;;;8.98;7.72;;;;;;;26.16;41.29;100624.47;5160300;27;20411;-74
2022/07/26 03:48:57;;;;;;;9.37;7.90;;;;;;;26.25;41.34;100627.44;5147615;27;20452;-73
2022/07/26 03:51:22;;;;;;;8.60;7.70;;;;;;;26.37;41.20;100613.53;5154390;27;20444;-74
2022/07/26 03:53:48;;;;;;;10.57;8.30;;;;;;;26.49;40.73;100620.28;5147109;27;20373;-74
2022/07/26 03:56:32;;;;;;;9.93;8.32;;;;;;;26.46;40.80;100612.66;5159849;27;20455;-75
2022/07/26 03:59:08;;;;;;;11.90;8.35;;;;;;;26.62;40.89;100620.78;5147364;27;20742;-75
2022/07/26 04:01:35;;;;;;;11.10;8.25;;;;;;;26.81;40.13;100621.78;5116875;27;20467;-74
2022/07/26 04:04:01;;;;;;;10.10;8.10;;;;;;;26.93;40.31;100634.22;5133957;27;20413;-74
2022/07/26 04:06:27;;;;;;;10.00;8.20;;;;;;;27.01;39.78;100625.44;5137949;27;20818;-73
2022/07/26 04:08:53;;;;;;;11.30;7.95;;;;;;;27.08;40.36;100624.06;5143729;27;20459;-74
2022/07/26 04:11:19;;;;;;;9.88;8.48;;;;;;;27.27;40.60;100626.91;5132614;27;20381;-74
2022/07/26 04:13:45;;;;;;;11.30;8.48;;;;;;;27.44;40.59;100629.25;5132864;27;20863;-75
2022/07/26 04:16:10;;;;;;;9.80;8.37;;;;;;;27.55;40.85;100631.88;5133163;27;20382;-75
2022/07/26 04:18:36;;;;;;;10.05;8.02;;;;;;;27.68;41.53;100623.03;5147445;27;20729;-75
2022/07/26 04:21:02;;;;;;;12.57;8.73;;;;;;;27.82;41.73;100623.16;5144775;27;20762;-73
2022/07/26 04:23:28;;;;;;;12.25;8.52;;;;;;;28.00;41.33;100625.19;5116459;27;20771;-74
2022/07/26 04:25:53;;;;;;;9.87;8.73;;;;;;;28.25;41.24;100617.81;5142941;27;20451;-74
2022/07/26 04:28:19;;;;;;;10.03;8.90;;;;;;;28.58;40.28;100616.06;5151353;27;20380;-74
2022/07/26 04:30:44;;;;;;;11.20;8.65;;;;;;;28.98;39.53;100613.84;5140823;27;20376;-73
2022/07/26 04:33:10;;;;;;;13.45;8.55;;;;;;;29.30;38.87;100615.03;5138916;27;20423;-74
2022/07/26 04:35:35;;;;;;;14.10;8.53;;;;;;;29.81;37.61;100615.28;5147132;27;20851;-74
2022/07/26 04:38:02;;;;;;;12.23;8.53;;;;;;;30.36;36.84;100604.38;5144712;27;20372;-74
2022/07/26 04:40:32;;;;;;;9.27;8.05;;;;;;;31.01;35.43;100602.41;5149184;27;20390;-73
2022/07/26 04:42:58;;;;;;;13.40;8.48;;;;;;;31.79;33.60;100608.34;5143098;27;20376;-72
2022/07/26 04:45:24;;;;;;;14.68;8.75;;;;;;;32.56;31.81;100600.69;5150378;27;20774;-73
2022/07/26 04:47:49;;;;;;;10.90;8.73;;;;;;;33.08;30.62;100596.31;5141081;27;20368;-75
2022/07/26 04:50:16;;;;;;;9.60;8.60;;;;;;;33.71;29.29;100608.53;5137898;27;20413;-75
2022/07/26 04:52:42;;;;;;;9.43;8.45;;;;;;;34.35;28.20;100600.47;5146153;27;20382;-66
2022/07/26 04:55:08;;;;;;;9.65;8.10;;;;;;;35.00;27.22;100598.97;5145188;27;20388;-66
2022/07/26 04:57:34;;;;;;;11.43;7.60;;;;;;;35.64;26.22;100590.53;5147803;27;20446;-66
2022/07/26 05:00:01;;;;;;;11.77;7.10;;;;;;;36.63;24.37;100594.88;5143243;27;20387;-66
2022/07/26 05:02:26;;;;;;;7.70;6.90;;;;;;;37.63;23.31;100587.72;5149582;27;20438;-66
2022/07/26 05:04:52;;;;;;;8.48;7.50;;;;;;;38.44;21.65;100587.25;5131691;27;20385;-65
2022/07/26 05:07:18;;;;;;;11.25;8.35;;;;;;;39.38;20.73;100589.88;5143263;27;20372;-66
2022/07/26 05:09:43;;;;;;;12.38;7.45;;;;;;;40.61;19.44;100600.91;5137625;27;20412;-66
2022/07/26 05:12:10;;;;;;;14.38;9.63;;;;;;;41.69;17.75;100588.09;5142679;27;20378;-66
2022/07/26 05:14:36;;;;;;;12.38;8.15;;;;;;;42.62;17.30;100585.88;5132074;27;20386;-66
2022/07/26 05:17:02;;;;;;;9.05;8.25;;;;;;;43.17;16.36;100586.84;5138534;27;20368;-66
2022/07/26 05:19:28;;;;;;;8.77;7.88;;;;;;;43.87;15.85;100582.47;5152569;27;20908;-67
2022/07/26 05:21:53;;;;;;;8.97;7.40;;;;;;;44.47;15.44;100582.69;5137499;27;20412;-67
2022/07/26 05:24:19;;;;;;;10.83;7.00;;;;;;;45.16;14.94;100589.50;5140968;27;20845;-67
2022/07/26 05:26:44;;;;;;;8.83;6.83;;;;;;;45.76;14.77;100581.84;5145994;27;20419;-65
2022/07/26 05:29:10;;;;;;;8.83;6.93;;;;;;;46.49;13.91;100574.22;5131311;27;20462;-67
2022/07/26 05:31:35;;;;;;;9.07;7.17;;;;;;;46.74;13.81;100571.06;5131095;27;20381;-65
2022/07/26 05:34:02;;;;;;;10.53;7.30;;;;;;;46.74;14.04;100564.66;5131665;27;20374;-66
2022/07/26 05:36:28;;;;;;;8.63;7.50;;;;;;;47.27;13.59;100563.09;5131636;27;20394;-67
2022/07/26 05:38:54;;;;;;;8.30;7.25;;;;;;;47.55;13.21;100563.00;5135129;27;20376;-67
2022/07/26 05:41:19;;;;;;;7.60;6.80;;;;;;;48.76;12.70;100564.59;5152222;27;20876;-66
2022/07/26 05:43:45;;;;;;;9.35;6.82;;;;;;;49.37;11.85;100563.88;5149282;27;20879;-64
2022/07/26 05:46:11;;;;;;;8.02;7.22;;;;;;;49.70;11.58;100566.66;5137301;27;20930;-64
2022/07/26 05:48:37;;;;;;;7.85;7.03;;;;;;;50.31;11.50;100556.47;5129540;27;20409;-66
2022/07/26 05:51:03;;;;;;;12.50;7.78;;;;;;;50.86;10.75;100562.06;5132848;27;20426;-67
2022/07/26 05:53:28;;;;;;;11.05;7.60;;;;;;;51.66;10.64;100560.19;5114034;27;20374;-66
2022/07/26 05:55:54;;;;;;;11.27;7.70;;;;;;;51.89;9.92;100561.00;5133239;27;20747;-65
2022/07/26 05:58:20;;;;;;;8.80;7.27;;;;;;;52.04;9.93;100556.38;5133153;27;20369;-64
2022/07/26 06:00:45;;;;;;;8.50;7.60;;;;;;;52.69;9.83;100556.69;5134021;27;20742;-66
2022/07/26 06:03:23;;;;;;;12.35;8.00;;;;;;;53.68;9.14;100555.75;5130974;27;20424;-66
2022/07/26 06:05:54;;;;;;;9.03;7.17;;;;;;;54.31;8.98;100553.28;5130765;27;20446;-66
2022/07/26 06:08:20;;;;;;;9.02;7.68;;;;;;;54.41;8.92;100554.81;5130744;27;20393;-66
2022/07/26 06:10:47;;;;;;;8.82;8.00;;;;;;;54.62;8.97;100553.00;5142472;27;20418;-66
2022/07/26 06:13:13;;;;;;;9.05;8.25;;;;;;;54.79;8.69;100546.91;5136482;27;20372;-66
2022/07/26 06:15:38;;;;;;;9.20;8.33;;;;;;;54.72;8.89;100559.41;5151241;27;20444;-66
2022/07/26 06:18:05;;;;;;;8.67;7.77;;;;;;;54.67;8.50;100547.94;5136352;27;20382;-66
2022/07/26 06:20:31;;;;;;;9.30;8.40;;;;;;;55.31;8.40;100553.22;5143735;27;20386;-66
2022/07/26 06:22:57;;;;;;;9.50;8.65;;;;;;;55.43;8.55;100545.66;5144684;27;20385;-66
2022/07/26 06:25:26;;;;;;;10.30;8.87;;;;;;;55.66;8.15;100546.91;5130574;27;20366;-66
2022/07/26 06:27:52;;;;;;;11.65;9.35;;;;;;;55.69;8.05;100553.69;5130382;27;20381;-65
2022/07/26 06:30:17;;;;;;;12.33;8.93;;;;;;;55.88;8.05;100543.72;5134447;27;20411;-66
2022/07/26 06:32:43;;;;;;;8.93;8.03;;;;;;;56.30;7.77;100545.44;5140871;27;20382;-65
2022/07/26 06:35:12;;;;;;;9.80;8.65;;;;;;;56.55;7.73;100540.38;5130309;27;20381;-65
2022/07/26 06:37:39;;;;;;;10.20;8.70;;;;;;;56.87;7.60;100538.50;5130637;27;20385;-65
2022/07/26 06:40:06;;;;;;;9.48;8.68;;;;;;;57.76;7.51;100540.03;5130236;27;20422;-65
2022/07/26 06:42:32;;;;;;;9.68;8.32;;;;;;;57.89;6.88;100530.28;5130172;27;20397;-65
2022/07/26 06:44:59;;;;;;;9.85;8.38;;;;;;;57.88;6.63;100549.44;5143264;27;20411;-66
2022/07/26 06:47:24;;;;;;;10.20;8.60;;;;;;;57.73;6.86;100529.63;5130868;27;20373;-65
2022/07/26 06:49:50;;;;;;;10.43;8.15;;;;;;;58.40;6.79;100520.03;5141570;27;20419;-65
2022/07/26 06:52:15;;;;;;;11.63;8.40;;;;;;;58.39;6.90;100521.34;5150973;27;20415;-65
2022/07/26 06:54:41;;;;;;;9.48;8.68;;;;;;;57.01;7.71;100518.97;5141926;27;20370;-65
2022/07/26 06:57:06;;;;;;;9.63;8.57;;;;;;;57.51;7.42;100518.78;5144768;27;20365;-65
2022/07/26 06:59:32;;;;;;;8.77;8.03;;;;;;;58.74;6.77;100509.56;5136834;27;20789;-65
2022/07/26 07:01:58;;;;;;;9.57;8.57;;;;;;;58.69;6.46;100512.41;5137634;27;20518;-65
2022/07/26 07:04:23;;;;;;;10.70;8.23;;;;;;;57.98;7.35;100515.81;5144566;27;20406;-65
2022/07/26 07:06:49;;;;;;;9.27;8.37;;;;;;;58.82;6.99;100511.94;5136698;27;20368;-66
2022/07/26 07:09:14;;;;;;;9.40;8.50;;;;;;;59.02;6.74;100508.91;5137153;27;20413;-65
2022/07/26 07:11:40;;;;;;;9.03;8.17;;;;;;;58.36;7.03;100496.66;5143756;27;20871;-65
2022/07/26 07:14:05;;;;;;;12.38;8.40;;;;;;;53.84;9.57;100497.94;5140682;27;20487;-65
2022/07/26 07:16:30;;;;;;;9.27;8.37;;;;;;;49.08;12.67;100507.53;5147476;27;20467;-65
2022/07/26 07:18:56;;;;;;;9.82;8.20;;;;;;;46.19;15.33;100513.31;5129942;28;20377;-65
2022/07/26 07:21:21;;;;;;;9.03;7.93;;;;;;;44.12;17.12;100511.81;5129837;27;20931;-64
2022/07/26 07:23:47;;;;;;;9.02;8.00;;;;;;;42.27;18.99;100511.31;5129740;27;20374;-64
2022/07/26 07:26:12;;;;;;;9.03;7.93;;;;;;;40.60;20.75;100522.28;5130085;27;20382;-64
2022/07/26 07:28:38;;;;;;;9.77;7.73;;;;;;;40.05;21.16;100524.75;5130066;27;20382;-64
2022/07/26 07:31:04;;;;;;;8.80;7.60;;;;;;;39.53;21.79;100527.97;5129587;27;20373;-64
2022/07/26 07:33:30;;;;;;;8.60;7.32;;;;;;;38.90;22.63;100522.88;5129554;27;20382;-64
2022/07/26 07:35:56;;;;;;;9.10;8.00;;;;;;;38.34;23.44;100516.63;5131167;27;20377;-61
2022/07/26 07:38:21;;;;;;;8.83;8.03;;;;;;;37.84;24.03;100521.84;5133697;27;20386;-64
2022/07/26 07:40:47;;;;;;;8.97;7.23;;;;;;;37.06;25.01;100515.13;5133676;27;20855;-64
2022/07/26 07:43:12;;;;;;;9.87;7.90;;;;;;;36.77;25.48;100522.69;5133332;27;20381;-64
2022/07/26 07:45:38;;;;;;;9.20;7.50;;;;;;;36.38;25.90;100527.09;5133617;27;20452;-64
2022/07/26 07:48:03;;;;;;;9.35;7.28;;;;;;;35.92;26.40;100527.25;5133018;27;20374;-64
2022/07/26 07:50:29;;;;;;;12.23;7.20;;;;;;;35.63;26.71;100528.28;5132859;27;20509;-64
2022/07/26 07:52:55;;;;;;;8.50;7.67;;;;;;;35.38;26.82;100531.03;5133090;27;20378;-64
2022/07/26 07:55:20;;;;;;;9.18;7.20;;;;;;;35.36;27.14;100516.78;5133397;27;20572;-64
2022/07/26 07:57:45;;;;;;;10.67;7.60;;;;;;;35.28;27.47;100517.72;5133096;27;20389;-63
2022/07/26 08:00:14;;;;;;;9.10;7.40;;;;;;;35.10;27.78;100511.56;5132916;27;20378;-63
2022/07/26 08:02:40;;;;;;;8.80;7.50;;;;;;;34.84;27.90;100524.47;5133097;27;20382;-63
2022/07/26 08:05:07;;;;;;;10.17;8.03;;;;;;;34.67;28.15;100514.38;5132996;27;20372;-64
2022/07/26 08:07:33;;;;;;;8.13;7.32;;;;;;;34.80;28.04;100514.44;5146426;27;20372;-63
2022/07/26 08:09:58;;;;;;;9.03;7.33;;;;;;;34.60;28.29;100507.81;5138906;27;20897;-64
2022/07/26 08:12:24;;;;;;;9.17;7.70;;;;;;;34.40;28.60;100521.25;5142406;27;20385;-64
2022/07/26 08:14:49;;;;;;;8.63;7.43;;;;;;;34.32;28.87;100522.13;5135649;27;20890;-64
2022/07/26 08:17:15;;;;;;;8.57;7.77;;;;;;;34.26;29.19;100518.75;5144621;27;20386;-64
2022/07/26 08:19:41;;;;;;;10.47;7.60;;;;;;;34.22;29.06;100515.09;5147824;27;20372;-64
2022/07/26 08:22:07;;;;;;;8.43;7.63;;;;;;;34.17;28.84;100522.69;5153517;27;20376;-64
2022/07/26 08:24:33;;;;;;;8.87;7.00;;;;;;;34.04;29.40;100522.63;5153191;27;20376;-63
2022/07/26 08:26:59;;;;;;;10.07;7.05;;;;;;;34.12;29.43;100512.69;5148555;27;20373;-64
2022/07/26 08:29:24;;;;;;;11.10;7.70;;;;;;;34.16;29.06;100512.81;5132305;27;20412;-64
2022/07/26 08:31:51;;;;;;;9.47;7.37;;;;;;;34.27;29.14;100517.63;5134936;27;20410;-64
2022/07/26 08:34:17;;;;;;;10.77;7.95;;;;;;;34.33;29.48;100514.69;5144176;27;20374;-63
2022/07/26 08:36:44;;;;;;;10.25;7.72;;;;;;;34.19;29.52;100510.25;5146866;27;20892;-63
2022/07/26 08:39:10;;;;;;;8.60;7.40;;;;;;;34.16;29.17;100499.91;5139949;27;20372;-63
2022/07/26 08:41:35;;;;;;;9.43;7.77;;;;;;;34.03;28.88;100501.78;5139723;27;20408;-63
2022/07/26 08:44:09;;;;;;;9.88;7.57;;;;;;;34.01;28.99;100509.53;5151960;27;20749;-63
2022/07/26 08:46:39;;;;;;;9.20;6.88;;;;;;;34.00;28.12;100505.19;5140584;27;20427;-63
2022/07/26 08:49:09;;;;;;;7.60;6.70;;;;;;;33.93;28.47;100499.41;5146430;27;20414;-63
2022/07/26 08:51:41;;;;;;;6.97;6.28;;;;;;;33.84;27.98;100498.66;5143982;27;20383;-63
2022/07/26 08:54:08;;;;;;;9.75;6.97;;;;;;;34.02;27.97;100513.09;5152597;27;20368;-63
2022/07/26 08:56:36;;;;;;;10.60;6.68;;;;;;;34.00;27.71;100499.69;5152882;27;20388;-63
2022/07/26 08:59:04;;;;;;;8.10;7.30;;;;;;;34.22;28.20;100500.53;5135593;27;20374;-63
2022/07/26 09:01:29;;;;;;;9.07;7.00;;;;;;;34.38;27.94;100500.72;5141146;27;20395;-63
2022/07/26 09:03:55;;;;;;;9.60;7.13;;;;;;;34.55;27.66;100506.06;5152513;27;20373;-63
2022/07/26 09:06:22;;;;;;;8.87;6.97;;;;;;;34.69;27.54;100499.47;5138004;27;20376;-63
2022/07/26 09:09:37;;;;;;;7.18;6.43;;;;;;;34.82;26.86;100498.38;5074439;27;20485;-64
2022/07/26 09:12:17;;;;;;;10.30;6.90;;;;;;;34.99;26.88;100495.47;5058862;28;20405;-64
2022/07/26 09:14:47;;;;;;;7.43;6.72;;;;;;;35.14;26.86;100490.44;5046500;28;20386;-64
2022/07/26 09:17:15;;;;;;;8.50;6.60;;;;;;;35.03;26.64;100496.38;5046375;28;20386;-64
2022/07/26 09:19:41;;;;;;;9.13;6.78;;;;;;;34.91;26.71;100495.56;5046363;28;20386;-64
2022/07/26 09:22:10;;;;;;;7.18;6.57;;;;;;;34.89;26.82;100493.13;5046622;28;20477;-64
2022/07/26 09:24:42;;;;;;;8.60;6.65;;;;;;;34.87;26.45;100491.88;5059316;28;20388;-64
2022/07/26 09:27:10;;;;;;;8.45;6.50;;;;;;;35.02;26.87;100485.69;5060020;28;20438;-65
2022/07/26 09:29:51;;;;;;;7.57;6.77;;;;;;;35.06;26.49;100488.56;5046349;28;20378;-64
2022/07/26 09:32:20;;;;;;;8.68;7.07;;;;;;;35.10;26.36;100487.56;5052421;28;20433;-64
2022/07/26 09:34:52;;;;;;;7.90;6.85;;;;;;;35.15;26.76;100483.75;5053102;28;20400;-64
2022/07/26 09:37:18;;;;;;;8.07;6.75;;;;;;;35.01;26.86;100473.88;5051578;28;20388;-64
2022/07/26 09:39:58;;;;;;;7.68;7.00;;;;;;;35.01;26.86;100464.81;5065895;28;20392;-64
2022/07/26 09:42:25;;;;;;;9.30;7.40;;;;;;;35.03;26.95;100466.06;5046126;28;20386;-64
2022/07/26 09:44:50;;;;;;;7.82;7.13;;;;;;;35.10;26.74;100467.47;5057918;28;20388;-64
2022/07/26 09:47:17;;;;;;;11.18;7.47;;;;;;;35.11;26.51;100469.06;5051590;28;20407;-64
2022/07/26 09:49:43;;;;;;;10.50;7.07;;;;;;;35.23;26.74;100458.09;5056348;28;20416;-64
2022/07/26 09:52:20;;;;;;;7.47;6.77;;;;;;;35.34;26.81;100450.19;5061417;28;20746;-64
2022/07/26 09:54:48;;;;;;;8.00;6.85;;;;;;;35.32;26.85;100456.03;5065748;28;20526;-64
2022/07/26 09:57:18;;;;;;;7.60;6.78;;;;;;;35.29;26.51;100448.44;5063585;28;20400;-64
2022/07/26 09:59:45;;;;;;;8.18;7.43;;;;;;;35.26;26.76;100446.41;5053686;28;20383;-65
2022/07/26 10:02:12;;;;;;;8.60;7.32;;;;;;;35.20;26.49;100450.50;5064797;28;20474;-64
2022/07/26 10:04:39;;;;;;;9.52;7.35;;;;;;;35.20;26.59;100451.34;5077058;28;20393;-64
2022/07/26 10:07:05;;;;;;;8.30;7.10;;;;;;;35.19;27.03;100443.38;5054627;28;20399;-64
2022/07/26 10:09:38;;;;;;;7.70;6.97;;;;;;;35.18;26.51;100447.28;5050467;28;20788;-65
2022/07/26 10:12:11;;;;;;;10.98;7.32;;;;;;;35.14;26.41;100438.09;5063207;28;20384;-64
2022/07/26 10:14:42;;;;;;;8.80;6.72;;;;;;;35.09;26.53;100444.63;5054666;28;20976;-65
2022/07/26 10:17:40;;;;;;;7.68;6.88;;;;;;;35.14;25.83;100429.81;5059063;28;20462;-64
2022/07/26 10:20:09;;;;;;;9.32;7.10;;;;;;;35.23;25.20;100433.31;5050438;28;20956;-64
2022/07/26 10:22:46;;;;;;;7.63;6.10;;;;;;;35.27;24.87;100434.22;5051718;28;20428;-64
2022/07/26 10:25:17;;;;;;;6.57;5.97;;;;;;;35.28;24.43;100429.53;5042095;28;20768;-64
2022/07/26 10:27:51;;;;;;;7.78;6.13;;;;;;;35.33;24.46;100430.09;5032037;28;20418;-64
2022/07/26 10:30:26;;;;;;;6.50;5.90;;;;;;;35.26;24.26;100421.59;5041364;28;20384;-64
2022/07/26 10:32:58;;;;;;;7.20;6.00;;;;;;;35.28;23.98;100433.06;5051214;28;20396;-64
2022/07/26 10:35:39;;;;;;;7.23;6.53;;;;;;;35.35;24.32;100418.72;5042277;28;20900;-64
2022/07/26 10:38:07;;;;;;;7.93;6.50;;;;;;;35.44;24.55;100418.59;5049339;28;20842;-65
2022/07/26 10:40:33;;;;;;;8.13;6.18;;;;;;;35.58;24.20;100419.84;5042035;28;20444;-64
2022/07/26 10:43:09;;;;;;;7.88;6.95;;;;;;;35.64;24.82;100411.31;5051127;28;20405;-65
2022/07/26 10:45:36;;;;;;;7.27;6.50;;;;;;;35.61;23.72;100399.84;5051729;28;20393;-64
2022/07/26 10:48:19;;;;;;;7.43;6.60;;;;;;;35.69;23.89;100413.84;5051514;28;20435;-64
2022/07/26 10:50:47;;;;;;;6.57;5.97;;;;;;;35.55;24.02;100408.72;5051426;28;20384;-65
2022/07/26 10:53:24;;;;;;;7.15;5.68;;;;;;;35.55;23.83;100404.00;5039320;28;20480;-65
2022/07/26 10:56:00;;;;;;;7.60;6.35;;;;;;;35.52;23.58;100395.63;5051926;28;20430;-64
2022/07/26 10:58:26;;;;;;;6.53;5.82;;;;;;;35.63;23.80;100398.69;5051222;28;20380;-64
2022/07/26 11:01:01;;;;;;;8.73;6.20;;;;;;;35.65;23.50;100390.88;5051133;28;20438;-64
2022/07/26 11:03:49;;;;;;;7.15;6.25;;;;;;;35.68;23.67;100385.47;5098094;27;20460;-65
2022/07/26 11:06:17;;;;;;;6.85;6.20;;;;;;;35.84;23.91;100393.84;5070300;28;20395;-64
2022/07/26 11:08:45;;;;;;;6.75;5.95;;;;;;;35.77;23.66;100388.91;5066988;28;20442;-65
2022/07/26 11:11:11;;;;;;;7.20;6.20;;;;;;;35.78;23.44;100382.25;5066494;28;20394;-65
2022/07/26 11:13:39;;;;;;;8.40;6.20;;;;;;;35.84;23.46;100390.28;5065975;28;20430;-65
2022/07/26 11:16:07;;;;;;;7.88;6.47;;;;;;;35.83;23.65;100385.91;5063746;28;20429;-65
2022/07/26 11:18:35;;;;;;;7.20;5.90;;;;;;;35.87;23.05;100378.53;5073258;28;20387;-63
2022/07/26 11:21:14;;;;;;;6.13;5.53;;;;;;;35.85;21.90;100381.66;5064968;28;20388;-65
2022/07/26 11:23:45;;;;;;;7.50;5.78;;;;;;;35.69;21.86;100378.00;5066151;28;20506;-64
2022/07/26 11:26:16;;;;;;;9.38;6.05;;;;;;;35.76;21.69;100378.22;5084731;28;20386;-65
2022/07/26 11:28:48;;;;;;;6.07;5.47;;;;;;;35.78;21.37;100367.66;5086568;28;20382;-64
2022/07/26 11:31:15;;;;;;;6.15;5.65;;;;;;;35.73;21.74;100367.91;5086308;28;20382;-65
2022/07/26 11:33:43;;;;;;;6.20;5.70;;;;;;;35.72;20.27;100364.34;5076804;28;20380;-65
2022/07/26 11:36:09;;;;;;;8.30;5.93;;;;;;;35.77;20.79;100363.31;5084439;28;20371;-64
2022/07/26 11:38:52;;;;;;;6.75;5.90;;;;;;;35.82;20.99;100351.19;5086386;28;20422;-65
2022/07/26 11:41:19;;;;;;;5.90;5.30;;;;;;;35.85;20.47;100358.78;5082074;28;20773;-64